createdAt,value
2022-11-26T00:00:06.245Z,-1.90
2022-11-26T00:05:15.799Z,-1.90
2022-11-26T00:10:27.322Z,-1.90
2022-11-26T00:15:33.664Z,-1.90
2022-11-26T00:20:38.927Z,-1.90
2022-11-26T00:25:49.818Z,-1.90
2022-11-26T00:30:56.350Z,-1.90
2022-11-26T00:36:07.256Z,-1.80
2022-11-26T00:41:16.177Z,-1.90
2022-11-26T00:46:22.980Z,-1.90
2022-11-26T00:51:29.395Z,-2.00
2022-11-26T00:56:38.163Z,-2.00
2022-11-26T01:01:43.150Z,-2.00
2022-11-26T01:06:48.518Z,-2.10
2022-11-26T01:11:54.609Z,-2.20
2022-11-26T01:17:02.320Z,-2.30
2022-11-26T01:22:07.525Z,-2.40
2022-11-26T01:27:14.427Z,-2.40
2022-11-26T01:32:23.155Z,-2.50
2022-11-26T01:37:27.365Z,-2.50
2022-11-26T01:42:48.336Z,-2.60
2022-11-26T01:47:53.416Z,-2.60
2022-11-26T01:53:01.818Z,-2.60
2022-11-26T01:58:10.994Z,-2.60
2022-11-26T02:03:16.312Z,-2.70
2022-11-26T02:08:21.909Z,-2.80
2022-11-26T02:13:27.676Z,-2.80
2022-11-26T02:18:35.822Z,-2.90
2022-11-26T02:23:52.739Z,-2.90
2022-11-26T02:29:17.134Z,-3.00
2022-11-26T02:34:43.671Z,-3.00
2022-11-26T02:39:49.507Z,-3.10
2022-11-26T02:44:58.077Z,-3.10
2022-11-26T02:50:06.289Z,-3.10
2022-11-26T02:55:13.990Z,-3.10
2022-11-26T03:00:20.142Z,-3.10
2022-11-26T03:05:25.382Z,-3.20
2022-11-26T03:10:32.660Z,-3.30
2022-11-26T03:15:37.832Z,-3.30
2022-11-26T03:20:43.670Z,-3.30
2022-11-26T03:25:48.857Z,-3.40
2022-11-26T03:30:54.879Z,-3.40
2022-11-26T03:36:00.085Z,-3.40
2022-11-26T03:41:05.738Z,-3.40
2022-11-26T03:46:11.210Z,-3.50
2022-11-26T03:51:16.294Z,-3.60
2022-11-26T03:56:21.464Z,-3.60
2022-11-26T04:01:26.841Z,-3.50
2022-11-26T04:06:32.033Z,-3.50
2022-11-26T04:11:37.719Z,-3.50
2022-11-26T04:16:43.026Z,-3.50
2022-11-26T04:21:48.484Z,-3.60
2022-11-26T04:26:53.948Z,-3.50
2022-11-26T04:31:59.144Z,-3.50
2022-11-26T04:37:04.272Z,-3.50
2022-11-26T04:42:09.573Z,-3.50
2022-11-26T04:47:16.300Z,-3.50
2022-11-26T04:52:21.553Z,-3.40
2022-11-26T04:57:26.746Z,-3.20
2022-11-26T05:02:32.022Z,-3.10
2022-11-26T05:07:37.358Z,-2.90
2022-11-26T05:12:42.702Z,-2.80
2022-11-26T05:17:48.393Z,-2.70
2022-11-26T05:22:53.497Z,-2.50
2022-11-26T05:27:58.612Z,-2.40
2022-11-26T05:33:03.783Z,-2.30
2022-11-26T05:38:08.949Z,-2.10
2022-11-26T05:43:14.224Z,-1.90
2022-11-26T05:48:19.709Z,-1.80
2022-11-26T05:53:24.844Z,-1.60
2022-11-26T05:58:29.917Z,-1.50
2022-11-26T06:03:35.177Z,-1.50
2022-11-26T06:08:40.759Z,-1.40
2022-11-26T06:13:45.942Z,-1.30
2022-11-26T06:19:01.506Z,-1.30
2022-11-26T06:24:08.418Z,-1.30
2022-11-26T06:34:54.166Z,-1.20
2022-11-26T06:40:02.635Z,-1.20
2022-11-26T06:45:14.534Z,-1.10
2022-11-26T06:50:29.888Z,-1.20
2022-11-26T06:55:35.341Z,-1.10
2022-11-26T07:00:43.236Z,-1.10
2022-11-26T07:06:01.241Z,-1.10
2022-11-26T07:11:06.568Z,-1.00
2022-11-26T07:16:12.339Z,-1.00
2022-11-26T07:21:18.313Z,-1.00
2022-11-26T07:26:25.010Z,-0.90
2022-11-26T07:31:33.080Z,-0.90
2022-11-26T07:36:40.252Z,-0.80
2022-11-26T07:41:45.629Z,-0.80
2022-11-26T07:46:50.967Z,-0.70
2022-11-26T07:51:59.434Z,-0.70
2022-11-26T07:57:21.279Z,-0.70
2022-11-26T08:02:31.528Z,-0.50
2022-11-26T08:07:45.874Z,-0.40
2022-11-26T08:12:53.978Z,-0.30
2022-11-26T08:18:05.170Z,-0.30
2022-11-26T08:23:11.030Z,-0.30
2022-11-26T08:28:26.422Z,-0.30
2022-11-26T08:33:31.823Z,-0.30
2022-11-26T08:38:38.484Z,-0.30
2022-11-26T08:48:52.220Z,-0.30
2022-11-26T08:53:57.848Z,-0.30
2022-11-26T08:59:03.762Z,-0.30
2022-11-26T09:04:09.077Z,-0.20
2022-11-26T09:09:18.430Z,-0.10
2022-11-26T09:14:28.331Z,0.00
2022-11-26T09:19:34.349Z,0.10
2022-11-26T09:24:45.214Z,0.10
2022-11-26T09:29:58.937Z,0.10
2022-11-26T09:41:18.755Z,0.30
2022-11-26T09:46:41.000Z,0.40
2022-11-26T09:51:50.785Z,0.40
2022-11-26T09:57:20.416Z,0.40
2022-11-26T10:02:46.454Z,0.40
2022-11-26T10:14:17.824Z,0.40
2022-11-26T10:19:47.013Z,0.50
2022-11-26T10:24:52.185Z,0.60
2022-11-26T10:30:03.536Z,0.60
2022-11-26T10:35:38.203Z,0.70
2022-11-26T10:46:44.138Z,0.60
2022-11-26T10:51:55.708Z,0.70
2022-11-26T11:03:11.623Z,0.80
2022-11-26T11:08:42.157Z,0.80
2022-11-26T11:13:50.598Z,0.80
2022-11-26T11:25:01.020Z,0.90
2022-11-26T11:30:10.946Z,0.90
2022-11-26T11:35:36.729Z,1.00
2022-11-26T11:40:48.566Z,0.90
2022-11-26T11:46:22.899Z,1.00
2022-11-26T11:51:49.580Z,0.90
2022-11-26T12:14:31.717Z,1.10
2022-11-26T12:20:05.909Z,1.10
2022-11-26T12:25:36.604Z,1.10
2022-11-26T12:30:51.612Z,1.10
2022-11-26T12:36:01.883Z,1.20
2022-11-26T12:47:31.179Z,1.20
2022-11-26T12:53:20.014Z,1.20
2022-11-26T12:58:42.596Z,1.20
2022-11-26T13:04:36.083Z,1.20
2022-11-26T13:27:50.013Z,1.30
2022-11-26T13:33:26.445Z,1.30
2022-11-26T13:45:08.347Z,1.30
2022-11-26T13:56:37.566Z,1.30
2022-11-26T14:01:51.305Z,1.30
2022-11-26T14:07:22.411Z,1.20
2022-11-26T14:13:10.649Z,1.20
2022-11-26T14:24:37.370Z,1.20
2022-11-26T14:35:53.920Z,1.10
2022-11-26T14:47:43.216Z,1.00
2022-11-26T14:58:57.363Z,1.00
2022-11-26T15:10:44.708Z,0.90
2022-11-26T15:15:59.514Z,0.90
2022-11-26T15:21:06.746Z,0.90
2022-11-26T15:26:19.481Z,0.90
2022-11-26T15:31:32.108Z,0.90
2022-11-26T15:36:41.061Z,0.90
2022-11-26T15:41:49.770Z,0.90
2022-11-26T15:47:05.615Z,0.90
2022-11-26T15:52:20.070Z,0.90
2022-11-26T15:57:41.711Z,0.90
2022-11-26T16:02:56.826Z,0.90
2022-11-26T16:08:07.852Z,1.00
2022-11-26T16:13:29.052Z,0.90
2022-11-26T16:18:46.031Z,0.90
2022-11-26T16:24:00.497Z,0.90
2022-11-26T16:29:08.854Z,0.90
2022-11-26T16:34:22.189Z,0.90
2022-11-26T16:45:04.539Z,0.90
2022-11-26T16:50:28.587Z,1.00
2022-11-26T16:55:33.938Z,0.90
2022-11-26T17:00:39.914Z,1.00
2022-11-26T17:05:45.324Z,1.00
2022-11-26T17:10:52.307Z,0.90
2022-11-26T17:16:17.679Z,1.00
2022-11-26T17:21:23.186Z,1.00
2022-11-26T17:26:30.660Z,1.00
2022-11-26T17:31:36.096Z,1.00
2022-11-26T17:36:49.958Z,1.00
2022-11-26T17:41:56.799Z,1.00
2022-11-26T17:47:16.985Z,1.10
2022-11-26T17:52:10.278Z,1.00
2022-11-26T17:57:17.393Z,1.00
2022-11-26T18:02:22.880Z,1.00
2022-11-26T18:07:28.593Z,1.10
2022-11-26T18:12:34.106Z,1.10
2022-11-26T18:17:39.611Z,1.10
2022-11-26T18:22:48.295Z,1.10
2022-11-26T18:27:53.727Z,1.10
2022-11-26T18:33:02.183Z,1.10
2022-11-26T18:38:09.301Z,1.10
2022-11-26T18:43:18.145Z,1.10
2022-11-26T18:54:12.525Z,1.10
2022-11-26T18:59:20.435Z,1.10
2022-11-26T19:04:35.795Z,1.10
2022-11-26T19:09:44.975Z,1.10
2022-11-26T19:14:50.769Z,1.10
2022-11-26T19:20:07.460Z,1.10
2022-11-26T19:25:15.562Z,1.10
2022-11-26T19:30:36.911Z,1.10
2022-11-26T19:35:49.386Z,1.10
2022-11-26T19:41:02.331Z,1.20
2022-11-26T19:46:12.419Z,1.20
2022-11-26T19:51:23.359Z,1.20
2022-11-26T19:56:32.310Z,1.20
2022-11-26T20:01:42.429Z,1.20
2022-11-26T20:06:57.799Z,1.30
2022-11-26T20:12:09.298Z,1.30
2022-11-26T20:17:15.312Z,1.30
2022-11-26T20:22:21.903Z,1.30
2022-11-26T20:27:30.160Z,1.30
2022-11-26T20:32:38.478Z,1.40
2022-11-26T20:37:47.831Z,1.40
2022-11-26T20:42:58.161Z,1.40
2022-11-26T20:48:10.207Z,1.40
2022-11-26T20:58:50.363Z,1.40
2022-11-26T21:03:57.017Z,1.50
2022-11-26T21:09:04.273Z,1.50
2022-11-26T21:14:14.618Z,1.50
2022-11-26T21:19:16.775Z,1.50
2022-11-26T21:24:22.405Z,1.50
2022-11-26T21:29:27.887Z,1.50
2022-11-26T21:34:33.731Z,1.50
2022-11-26T21:39:39.680Z,1.50
2022-11-26T21:44:47.403Z,1.40
2022-11-26T21:49:52.584Z,1.40
2022-11-26T21:55:02.288Z,1.40
2022-11-26T22:00:06.590Z,1.40
2022-11-26T22:05:11.942Z,1.40
2022-11-26T22:10:17.339Z,1.40
2022-11-26T22:15:22.680Z,1.40
2022-11-26T22:20:28.030Z,1.40
2022-11-26T22:25:36.430Z,1.40
2022-11-26T22:30:43.315Z,1.40
2022-11-26T22:35:48.628Z,1.40
2022-11-26T22:40:53.895Z,1.40
2022-11-26T22:45:59.386Z,1.40
2022-11-26T22:51:05.330Z,1.40
2022-11-26T22:56:10.674Z,1.40
2022-11-26T23:01:24.546Z,1.40
2022-11-26T23:06:32.268Z,1.30
2022-11-26T23:11:42.641Z,1.40
2022-11-26T23:16:48.353Z,1.40
2022-11-26T23:21:53.654Z,1.40
2022-11-26T23:26:59.252Z,1.40
2022-11-26T23:32:04.541Z,1.40
2022-11-26T23:37:09.783Z,1.40
2022-11-26T23:42:15.016Z,1.50
2022-11-26T23:47:20.397Z,1.50
2022-11-26T23:52:25.793Z,1.50
2022-11-26T23:57:31.297Z,1.40
